Newburgh, IN (47630)

2:04 AM CDT on October 24, 2014 (GMT -0500)
Summer Creek | Change Station
CLOSE
Current Station
Personal Weather Station
Location: Newburgh, IN
Elevation: 387 ft
Nearby Weather Stations

Elev 387 ft 37.97 °N, 87.37 °W | Updated 42 seconds ago

Clear
Clear
43.2 °F
Feels Like 43 °F
N
0.0
Wind Variable Wind from NW
Gusts 0.0 mph

Today
High -- | Low -- °F
--% Chance of Precip.
Yesterday
High -- | Low -- °F
Precip. -- in
7:06 AM 5:59 PM
New Moon, 0% visible
Pressure 30.13 in
Visibility 9.0 miles
Clouds Clear
Windchill 43 °F
Dew Point 40 °F
Humidity 90%
Rainfall 0.00 in
Snow Depth Not available.
UV 0 out of 12
Pollen 1.30 out of 12
Air Quality Not available.
Flu Activity Sporadic
METAR KEVV 240654Z AUTO 00000KT 9SM CLR 06/05 A3013 RMK AO2 SLP202 T00610050

More Conditions Fewer Conditions

Pressure 30.13 in
Visibility 9.0 miles
Clouds Clear
Windchill 43 °F
Dew Point 40 °F
Humidity 90%
Rainfall 0.00 in
Snow Depth Not available.
UV 0 out of 12
Pollen 1.30 out of 12
Air Quality Not available.
Flu Activity Sporadic
METAR KEVV 240654Z AUTO 00000KT 9SM CLR 06/05 A3013 RMK AO2 SLP202 T00610050

More Conditions Fewer Conditions

10-Day Weather Forecast

Almanac

Astronomy

Oct. 24, 2014 Rise Set
Actual Time 7:06 AM CDT 5:59 PM CDT
Civil Twilight 6:39 AM CDT 6:26 PM CDT
Nautical Twilight 6:09 AM CDT 6:57 PM CDT
Astronomical Twilight 5:38 AM CDT 7:27 PM CDT
Moon 7:45 AM CDT 6:40 PM CDT
Length of Visible Light 11h 46m
Length of Day
10h 52m
Tomorrow will be 2m 16s shorter.
New Moon, 0% of the Moon is Illuminated
Today
New Moon
Oct 30
First Quarter
Nov 6
Full
Nov 14
Last Quarter
Nov 22
New

Today's Extremes

State Highs State Lows

Community

WunderPhotos

Upload Photos

1,764,510 photos uploaded!

WunderBlogs® & News

Nearby

Snow Depth

Station Depth Elevation
No new snow has been reported.

Earthquake Activity

City Distance Mag. Time & Date
No recent earthquake activity has been reported nearby.
Minimum magnitude displayed is 2.5.

Coastal Water Temperatures

Place Temperature
No Stations Reporting

Nearby Weather Stations